createdAt,value
2022-11-19T00:02:00.522Z,98.40
2022-11-19T00:04:29.848Z,98.00
2022-11-19T00:06:58.363Z,98.60
2022-11-19T00:09:26.308Z,97.30
2022-11-19T00:12:11.472Z,97.50
2022-11-19T00:14:39.553Z,97.50
2022-11-19T00:17:07.432Z,97.20
2022-11-19T00:19:36.693Z,97.70
2022-11-19T00:22:04.528Z,97.90
2022-11-19T00:24:32.402Z,97.60
2022-11-19T00:27:00.276Z,97.50
2022-11-19T00:29:28.158Z,97.70
2022-11-19T00:31:56.010Z,99.90
2022-11-19T00:34:23.865Z,98.20
2022-11-19T00:36:53.062Z,98.00
2022-11-19T00:39:22.073Z,98.00
2022-11-19T00:41:50.145Z,98.20
2022-11-19T00:44:18.031Z,98.50
2022-11-19T00:46:45.893Z,98.60
2022-11-19T00:49:13.726Z,98.60
2022-11-19T00:51:41.580Z,98.60
2022-11-19T00:54:10.790Z,98.40
2022-11-19T00:56:38.798Z,98.70
2022-11-19T00:59:06.778Z,98.70
2022-11-19T01:01:34.812Z,99.90
2022-11-19T01:04:02.744Z,98.70
2022-11-19T01:06:30.707Z,98.70
2022-11-19T01:08:58.597Z,98.60
2022-11-19T01:11:29.634Z,99.80
2022-11-19T01:13:58.802Z,99.50
2022-11-19T01:16:29.019Z,99.40
2022-11-19T01:18:57.155Z,99.60
2022-11-19T01:21:26.852Z,99.20
2022-11-19T01:23:54.954Z,99.60
2022-11-19T01:26:23.192Z,98.90
2022-11-19T01:28:52.816Z,99.90
2022-11-19T01:31:24.459Z,98.80
2022-11-19T01:33:52.468Z,98.00
2022-11-19T01:36:22.658Z,99.00
2022-11-19T01:38:51.747Z,99.50
2022-11-19T01:41:19.687Z,98.50
2022-11-19T01:43:49.934Z,99.80
2022-11-19T01:46:20.673Z,98.90
2022-11-19T01:48:52.361Z,97.80
2022-11-19T01:51:25.820Z,98.40
2022-11-19T01:53:57.627Z,98.80
2022-11-19T01:56:26.181Z,99.60
2022-11-19T01:58:58.258Z,99.90
2022-11-19T02:01:29.367Z,98.90
2022-11-19T02:04:00.526Z,99.10
2022-11-19T02:06:29.253Z,99.20
2022-11-19T02:08:57.437Z,98.90
2022-11-19T02:11:48.657Z,98.80
2022-11-19T02:14:32.046Z,99.30
2022-11-19T02:17:09.204Z,99.70
2022-11-19T02:20:36.728Z,99.30
2022-11-19T02:23:29.583Z,98.50
2022-11-19T02:26:45.867Z,98.90
2022-11-19T02:29:31.303Z,98.80
2022-11-19T02:32:04.266Z,98.90
2022-11-19T02:34:37.976Z,99.00
2022-11-19T02:37:12.040Z,99.40
2022-11-19T02:39:44.414Z,99.60
2022-11-19T02:42:18.396Z,99.50
2022-11-19T02:45:00.046Z,99.20
2022-11-19T02:47:34.529Z,98.90
2022-11-19T02:50:09.366Z,99.30
2022-11-19T02:52:38.015Z,99.30
2022-11-19T02:55:06.722Z,99.60
2022-11-19T02:57:36.332Z,99.50
2022-11-19T03:00:24.913Z,99.60
2022-11-19T03:03:14.834Z,99.40
2022-11-19T03:05:46.255Z,99.30
2022-11-19T03:08:14.323Z,99.90
2022-11-19T03:10:52.266Z,98.90
2022-11-19T03:13:42.241Z,99.20
2022-11-19T03:16:33.532Z,99.20
2022-11-19T03:19:09.113Z,99.60
2022-11-19T03:21:43.554Z,99.10
2022-11-19T03:24:16.209Z,98.80
2022-11-19T03:26:48.763Z,99.90
2022-11-19T03:29:17.613Z,98.90
2022-11-19T03:31:50.749Z,98.50
2022-11-19T03:34:23.041Z,98.40
2022-11-19T03:36:53.529Z,98.70
2022-11-19T03:39:22.639Z,99.00
2022-11-19T03:41:53.249Z,99.40
2022-11-19T03:44:25.345Z,99.30
2022-11-19T03:46:58.334Z,99.40
2022-11-19T03:49:32.557Z,99.50
2022-11-19T03:52:04.266Z,99.40
2022-11-19T03:54:32.425Z,99.90
2022-11-19T03:57:01.144Z,99.40
2022-11-19T03:59:30.095Z,99.30
2022-11-19T04:02:02.421Z,98.30
2022-11-19T04:04:37.955Z,99.50
2022-11-19T04:07:11.075Z,98.50
2022-11-19T04:09:39.936Z,99.60
2022-11-19T04:12:09.274Z,98.90
2022-11-19T04:14:37.145Z,98.70
2022-11-19T04:17:04.991Z,97.90
2022-11-19T04:19:34.198Z,98.00
2022-11-19T04:22:02.053Z,98.10
2022-11-19T04:24:29.995Z,97.90
2022-11-19T04:26:57.813Z,97.80
2022-11-19T04:29:25.676Z,97.80
2022-11-19T04:31:53.521Z,98.60
2022-11-19T04:34:21.393Z,98.20
2022-11-19T04:36:50.578Z,97.90
2022-11-19T04:39:18.975Z,97.80
2022-11-19T04:41:47.073Z,98.00
2022-11-19T04:44:14.938Z,98.40
2022-11-19T04:46:42.766Z,98.50
2022-11-19T04:49:10.632Z,99.00
2022-11-19T04:51:38.533Z,99.20
2022-11-19T04:54:08.576Z,99.00
2022-11-19T04:56:36.456Z,99.00
2022-11-19T04:59:04.533Z,99.40
2022-11-19T05:01:32.918Z,99.20
2022-11-19T05:04:00.860Z,99.60
2022-11-19T05:06:28.706Z,98.50
2022-11-19T05:08:56.524Z,98.60
2022-11-19T05:11:25.758Z,98.90
2022-11-19T05:13:53.652Z,98.90
2022-11-19T05:16:21.515Z,98.90
2022-11-19T05:18:49.352Z,98.60
2022-11-19T05:21:17.235Z,98.30
2022-11-19T05:23:45.079Z,99.00
2022-11-19T05:26:12.926Z,99.80
2022-11-19T05:28:42.094Z,98.40
2022-11-19T05:31:10.337Z,98.30
2022-11-19T05:33:38.257Z,98.30
2022-11-19T05:36:06.995Z,97.60
2022-11-19T05:38:34.902Z,98.10
2022-11-19T05:41:02.708Z,97.90
2022-11-19T05:43:30.568Z,97.90
2022-11-19T05:46:02.309Z,98.10
2022-11-19T05:48:30.539Z,98.20
2022-11-19T05:50:58.685Z,98.60
2022-11-19T05:53:27.206Z,98.60
2022-11-19T05:55:55.078Z,98.50
2022-11-19T05:58:22.984Z,98.50
2022-11-19T06:00:55.457Z,98.00
2022-11-19T06:03:24.682Z,98.10
2022-11-19T06:05:53.003Z,98.90
2022-11-19T06:08:20.806Z,99.10
2022-11-19T06:10:48.648Z,99.00
2022-11-19T06:13:16.453Z,98.50
2022-11-19T06:15:44.277Z,99.40
2022-11-19T06:18:12.105Z,98.10
2022-11-19T06:20:41.271Z,97.80
2022-11-19T06:23:09.081Z,98.10
2022-11-19T06:25:36.907Z,97.90
2022-11-19T06:28:05.008Z,97.90
2022-11-19T06:30:32.824Z,97.70
2022-11-19T06:33:00.754Z,97.40
2022-11-19T06:35:28.555Z,97.20
2022-11-19T06:37:57.750Z,98.20
2022-11-19T06:40:25.603Z,96.90
2022-11-19T06:42:53.493Z,97.50
2022-11-19T06:45:21.469Z,96.70
2022-11-19T06:47:49.992Z,96.50
2022-11-19T06:50:18.126Z,96.80
2022-11-19T06:52:46.068Z,97.50
2022-11-19T06:55:15.403Z,96.50
2022-11-19T06:57:43.269Z,96.70
2022-11-19T07:00:12.721Z,96.90
2022-11-19T07:02:40.955Z,97.30
2022-11-19T07:05:09.464Z,98.50
2022-11-19T07:07:37.407Z,96.80
2022-11-19T07:10:06.000Z,96.90
2022-11-19T07:12:35.266Z,96.30
2022-11-19T07:15:04.767Z,96.50
2022-11-19T07:17:33.286Z,96.00
2022-11-19T07:20:01.173Z,95.50
2022-11-19T07:22:29.014Z,95.60
2022-11-19T07:24:56.867Z,96.40
2022-11-19T07:27:24.760Z,96.30
2022-11-19T07:29:53.961Z,96.30
2022-11-19T07:32:21.809Z,97.10
2022-11-19T07:34:49.653Z,96.10
2022-11-19T07:37:18.498Z,95.70
2022-11-19T07:39:46.894Z,96.70
2022-11-19T07:42:32.462Z,96.00
2022-11-19T07:45:02.982Z,96.20
2022-11-19T07:47:30.966Z,96.40
2022-11-19T07:49:58.813Z,96.10
2022-11-19T07:52:26.678Z,96.20
2022-11-19T07:54:54.521Z,96.20
2022-11-19T07:57:27.226Z,96.40
2022-11-19T07:59:57.903Z,98.10
2022-11-19T08:02:27.106Z,96.40
2022-11-19T08:04:54.959Z,94.60
2022-11-19T08:07:22.930Z,94.60
2022-11-19T08:09:50.865Z,95.00
2022-11-19T08:12:18.732Z,94.90
2022-11-19T08:14:46.573Z,95.20
2022-11-19T08:17:31.874Z,96.10
2022-11-19T08:20:01.093Z,95.00
2022-11-19T08:22:29.792Z,94.90
2022-11-19T08:24:57.656Z,94.50
2022-11-19T08:27:25.569Z,94.50
2022-11-19T08:29:53.397Z,95.10
2022-11-19T08:32:21.266Z,94.00
2022-11-19T08:34:49.128Z,94.40
2022-11-19T08:37:18.289Z,94.70
2022-11-19T08:39:46.119Z,94.70
2022-11-19T08:42:31.277Z,94.50
2022-11-19T08:44:59.117Z,94.70
2022-11-19T08:47:26.931Z,94.80
2022-11-19T08:49:54.772Z,97.70
2022-11-19T08:52:23.930Z,94.50
2022-11-19T08:54:52.001Z,94.00
2022-11-19T08:57:19.886Z,93.90
2022-11-19T08:59:47.733Z,94.40
2022-11-19T09:02:15.595Z,94.90
2022-11-19T09:04:43.451Z,95.80
2022-11-19T09:07:11.372Z,94.00
2022-11-19T09:09:40.612Z,94.20
2022-11-19T09:12:09.712Z,94.20
2022-11-19T09:14:37.567Z,93.90
2022-11-19T09:17:05.447Z,93.90
2022-11-19T09:19:33.284Z,94.50
2022-11-19T09:22:01.133Z,94.30
2022-11-19T09:24:29.045Z,93.90
2022-11-19T09:27:02.037Z,94.10
2022-11-19T09:29:30.315Z,94.60
2022-11-19T09:31:58.185Z,94.60
2022-11-19T09:34:26.060Z,94.60
2022-11-19T09:36:53.890Z,94.80
2022-11-19T09:39:21.762Z,94.60
2022-11-19T09:41:56.566Z,94.70
2022-11-19T09:44:54.305Z,95.10
2022-11-19T09:47:32.200Z,94.40
2022-11-19T09:50:07.470Z,94.50
2022-11-19T09:52:45.290Z,94.20
2022-11-19T09:55:20.352Z,94.20
2022-11-19T09:57:52.303Z,94.40
2022-11-19T10:00:25.963Z,95.50
2022-11-19T10:02:54.464Z,93.90
2022-11-19T10:05:30.824Z,93.50
2022-11-19T10:08:12.250Z,94.70
2022-11-19T10:10:43.178Z,93.50
2022-11-19T10:13:33.664Z,93.50
2022-11-19T10:16:16.004Z,93.70
2022-11-19T10:18:55.741Z,94.60
2022-11-19T10:21:27.854Z,93.00
2022-11-19T10:24:04.794Z,92.70
2022-11-19T10:26:36.507Z,93.00
2022-11-19T10:29:15.233Z,93.50
2022-11-19T10:31:48.307Z,92.80
2022-11-19T10:34:23.210Z,93.60
2022-11-19T10:36:57.548Z,93.60
2022-11-19T10:39:30.417Z,93.90
2022-11-19T10:42:07.230Z,93.30
2022-11-19T10:44:41.015Z,93.30
2022-11-19T10:47:17.427Z,98.60
2022-11-19T10:49:45.478Z,92.60
2022-11-19T10:52:23.395Z,92.70
2022-11-19T10:54:53.673Z,94.30
2022-11-19T10:57:22.794Z,93.00
2022-11-19T10:59:52.977Z,92.90
2022-11-19T11:02:33.691Z,92.90
2022-11-19T11:05:13.854Z,92.90
2022-11-19T11:07:51.300Z,92.80
2022-11-19T11:10:31.704Z,93.10
2022-11-19T11:13:24.346Z,93.10
2022-11-19T11:15:54.782Z,93.90
2022-11-19T11:18:30.431Z,94.90
2022-11-19T11:20:59.234Z,92.40
2022-11-19T11:23:29.033Z,92.30
2022-11-19T11:26:04.516Z,91.80
2022-11-19T11:28:32.655Z,93.00
2022-11-19T11:31:01.995Z,91.40
2022-11-19T11:33:34.475Z,91.70
2022-11-19T11:36:06.824Z,91.90
2022-11-19T11:38:42.281Z,91.80
2022-11-19T11:42:01.943Z,91.60
2022-11-19T11:44:02.801Z,91.70
2022-11-19T11:46:42.891Z,91.90
2022-11-19T11:49:26.224Z,91.80
2022-11-19T11:52:05.145Z,91.90
2022-11-19T11:54:33.195Z,91.80
2022-11-19T11:57:18.407Z,91.80
2022-11-19T11:59:47.007Z,91.80
2022-11-19T12:02:23.449Z,91.80
2022-11-19T12:04:54.741Z,92.30
2022-11-19T12:07:40.559Z,92.10
2022-11-19T12:10:23.577Z,92.50
2022-11-19T12:13:02.975Z,92.70
2022-11-19T12:15:41.070Z,92.60
2022-11-19T12:18:18.612Z,92.60
2022-11-19T12:20:54.305Z,92.70
2022-11-19T12:23:36.461Z,93.70
2022-11-19T12:26:13.850Z,91.60
2022-11-19T12:29:01.096Z,92.20
2022-11-19T12:31:42.988Z,90.90
2022-11-19T12:34:29.815Z,91.30
2022-11-19T12:37:06.107Z,91.20
2022-11-19T12:39:46.518Z,91.30
2022-11-19T12:42:49.205Z,91.00
2022-11-19T12:45:30.446Z,91.10
2022-11-19T12:48:17.482Z,90.90
2022-11-19T12:50:54.189Z,90.80
2022-11-19T12:53:45.560Z,91.00
2022-11-19T12:56:24.673Z,92.10
2022-11-19T12:59:07.664Z,91.90
2022-11-19T13:01:41.633Z,91.30
2022-11-19T13:04:16.277Z,92.10
2022-11-19T13:06:47.309Z,91.40
2022-11-19T13:09:22.783Z,90.50
2022-11-19T13:11:54.337Z,91.20
2022-11-19T13:14:28.872Z,91.30
2022-11-19T13:16:57.997Z,90.00
2022-11-19T13:19:30.315Z,90.40
2022-11-19T13:22:01.464Z,90.50
2022-11-19T13:24:35.107Z,90.90
2022-11-19T13:27:06.192Z,90.60
2022-11-19T13:29:40.095Z,91.00
2022-11-19T13:32:16.895Z,90.90
2022-11-19T13:34:53.633Z,90.80
2022-11-19T13:37:35.423Z,92.00
2022-11-19T13:40:14.806Z,90.50
2022-11-19T13:43:24.887Z,90.70
2022-11-19T13:45:54.922Z,90.60
2022-11-19T13:48:27.145Z,90.60
2022-11-19T13:50:59.969Z,90.60
2022-11-19T13:53:34.894Z,90.20
2022-11-19T13:56:04.412Z,90.50
2022-11-19T13:58:37.695Z,90.50
2022-11-19T14:01:36.772Z,90.90
2022-11-19T14:04:20.431Z,90.20
2022-11-19T14:07:02.282Z,90.10
2022-11-19T14:09:39.728Z,90.00
2022-11-19T14:12:55.166Z,90.10
2022-11-19T14:16:00.618Z,90.10
2022-11-19T14:18:54.304Z,90.30
2022-11-19T14:22:04.493Z,90.40
2022-11-19T14:25:08.796Z,90.80
2022-11-19T14:27:38.032Z,90.00
2022-11-19T14:30:12.203Z,90.20
2022-11-19T14:32:46.891Z,90.10
2022-11-19T14:35:30.229Z,89.90
2022-11-19T14:38:03.076Z,90.60
2022-11-19T14:40:33.089Z,89.20
2022-11-19T14:43:46.213Z,89.10
2022-11-19T14:46:27.328Z,89.10
2022-11-19T14:49:02.368Z,88.60
2022-11-19T14:51:36.849Z,88.90
2022-11-19T14:54:19.109Z,88.50
2022-11-19T14:56:49.650Z,89.00
2022-11-19T14:59:24.605Z,88.60
2022-11-19T15:01:58.157Z,91.40
2022-11-19T15:04:34.476Z,90.10
2022-11-19T15:07:09.428Z,87.60
2022-11-19T15:10:09.779Z,87.70
2022-11-19T15:12:48.380Z,88.10
2022-11-19T15:15:43.469Z,90.20
2022-11-19T15:18:37.541Z,90.40
2022-11-19T15:21:47.074Z,88.60
2022-11-19T15:24:24.588Z,90.30
2022-11-19T15:27:04.467Z,89.00
2022-11-19T15:29:57.993Z,91.90
2022-11-19T15:32:43.846Z,87.70
2022-11-19T15:35:34.282Z,88.00
2022-11-19T15:38:11.532Z,89.30
2022-11-19T15:40:43.367Z,92.60
2022-11-19T15:43:20.772Z,87.10
2022-11-19T15:45:54.113Z,88.00
2022-11-19T15:48:28.669Z,91.00
2022-11-19T15:50:56.708Z,90.70
2022-11-19T15:53:25.119Z,87.90
2022-11-19T15:55:56.702Z,85.70
2022-11-19T15:58:28.471Z,86.90
2022-11-19T16:00:56.954Z,90.40
2022-11-19T16:03:26.345Z,91.30
2022-11-19T16:06:03.681Z,94.00
2022-11-19T16:08:32.133Z,91.50
2022-11-19T16:11:20.486Z,90.20
2022-11-19T16:14:10.074Z,82.40
2022-11-19T16:16:55.862Z,83.70
2022-11-19T16:19:25.203Z,86.40
2022-11-19T16:21:57.468Z,85.90
2022-11-19T16:24:44.895Z,84.40
2022-11-19T16:27:19.547Z,84.40
2022-11-19T16:29:47.620Z,84.80
2022-11-19T16:32:17.898Z,97.90
2022-11-19T16:34:47.919Z,90.60
2022-11-19T16:37:18.227Z,89.10
2022-11-19T16:39:52.142Z,79.40
2022-11-19T16:42:26.730Z,81.30
2022-11-19T16:44:56.594Z,75.20
2022-11-19T16:47:29.870Z,77.70
2022-11-19T16:50:02.950Z,81.20
2022-11-19T16:52:41.650Z,81.90
2022-11-19T16:55:48.246Z,84.80
2022-11-19T16:58:19.008Z,81.10
2022-11-19T17:00:50.253Z,80.50
2022-11-19T17:03:29.133Z,80.80
2022-11-19T17:05:59.605Z,88.80
2022-11-19T17:08:30.818Z,92.00
2022-11-19T17:11:36.215Z,82.60
2022-11-19T17:14:23.239Z,82.70
2022-11-19T17:16:53.323Z,80.40
2022-11-19T17:19:26.665Z,84.20
2022-11-19T17:22:00.108Z,84.10
2022-11-19T17:24:31.377Z,79.90
2022-11-19T17:26:59.870Z,79.40
2022-11-19T17:29:28.133Z,92.70
2022-11-19T17:31:57.304Z,93.90
2022-11-19T17:34:31.275Z,92.70
2022-11-19T17:37:00.898Z,94.00
2022-11-19T17:39:28.752Z,84.90
2022-11-19T17:42:14.669Z,80.50
2022-11-19T17:44:42.726Z,79.80
2022-11-19T17:47:23.962Z,78.60
2022-11-19T17:49:52.801Z,79.80
2022-11-19T17:52:26.728Z,79.20
2022-11-19T17:54:56.729Z,83.40
2022-11-19T17:57:24.741Z,82.70
2022-11-19T17:59:53.013Z,83.30
2022-11-19T18:02:21.709Z,93.40
2022-11-19T18:04:50.073Z,95.40
2022-11-19T18:07:18.079Z,87.00
2022-11-19T18:09:47.374Z,82.50
2022-11-19T18:12:17.670Z,92.60
2022-11-19T18:14:46.389Z,96.10
2022-11-19T18:17:15.788Z,95.60
2022-11-19T18:19:44.141Z,85.20
2022-11-19T18:22:17.965Z,82.90
2022-11-19T18:24:47.927Z,91.50
2022-11-19T18:27:16.414Z,89.70
2022-11-19T18:29:44.491Z,82.10
2022-11-19T18:32:15.802Z,80.20
2022-11-19T18:34:44.091Z,90.00
2022-11-19T18:37:11.956Z,93.80
2022-11-19T18:39:40.138Z,90.00
2022-11-19T18:42:10.979Z,82.60
2022-11-19T18:44:38.565Z,81.00
2022-11-19T18:47:08.406Z,86.30
2022-11-19T18:49:36.335Z,94.00
2022-11-19T18:52:05.568Z,90.00
2022-11-19T18:54:33.538Z,81.80
2022-11-19T18:57:02.345Z,79.80
2022-11-19T18:59:31.564Z,78.80
2022-11-19T19:01:59.615Z,92.80
2022-11-19T19:04:27.692Z,94.80
2022-11-19T19:06:56.000Z,86.30
2022-11-19T19:09:24.401Z,78.60
2022-11-19T19:12:13.808Z,78.40
2022-11-19T19:14:43.651Z,81.00
2022-11-19T19:17:11.672Z,93.30
2022-11-19T19:19:39.837Z,90.10
2022-11-19T19:22:08.787Z,81.20
2022-11-19T19:24:36.711Z,79.50
2022-11-19T19:27:05.363Z,78.70
2022-11-19T19:29:33.534Z,91.00
2022-11-19T19:32:02.774Z,95.00
2022-11-19T19:34:30.878Z,89.40
2022-11-19T19:36:58.792Z,80.40
2022-11-19T19:39:26.896Z,80.00
2022-11-19T19:41:54.844Z,91.40
2022-11-19T19:44:22.690Z,94.40
2022-11-19T19:46:50.785Z,85.50
2022-11-19T19:49:20.377Z,82.00
2022-11-19T19:51:48.534Z,80.00
2022-11-19T19:54:16.869Z,92.30
2022-11-19T19:56:44.714Z,95.30
2022-11-19T19:59:13.948Z,86.20
2022-11-19T20:01:45.206Z,81.70
2022-11-19T20:04:13.176Z,80.10
2022-11-19T20:06:46.628Z,91.60
2022-11-19T20:09:15.221Z,95.20
2022-11-19T20:11:43.061Z,88.00
2022-11-19T20:14:11.145Z,82.10
2022-11-19T20:16:41.766Z,79.60
2022-11-19T20:19:13.151Z,90.20
2022-11-19T20:21:42.853Z,94.20
2022-11-19T20:24:13.297Z,85.90
2022-11-19T20:26:42.933Z,81.10
2022-11-19T20:29:13.440Z,80.70
2022-11-19T20:31:45.784Z,91.80
2022-11-19T20:34:13.867Z,94.50
2022-11-19T20:36:43.997Z,87.20
2022-11-19T20:39:12.504Z,81.80
2022-11-19T20:41:57.918Z,80.20
2022-11-19T20:44:25.828Z,92.90
2022-11-19T20:46:55.375Z,94.90
2022-11-19T20:49:26.422Z,90.20
2022-11-19T20:51:56.400Z,86.00
2022-11-19T20:54:25.559Z,88.80
2022-11-19T20:56:54.983Z,93.50
2022-11-19T20:59:24.020Z,90.20
2022-11-19T21:01:53.296Z,80.80
2022-11-19T21:04:21.747Z,79.80
2022-11-19T21:06:50.617Z,92.00
2022-11-19T21:09:20.439Z,94.80
2022-11-19T21:11:48.702Z,90.00
2022-11-19T21:14:16.546Z,91.70
2022-11-19T21:16:44.493Z,93.50
2022-11-19T21:19:13.451Z,84.00
2022-11-19T21:21:41.353Z,79.90
2022-11-19T21:24:09.458Z,79.70
2022-11-19T21:26:38.831Z,81.90
2022-11-19T21:29:06.755Z,79.00
2022-11-19T21:31:40.417Z,79.60
2022-11-19T21:34:10.139Z,80.90
2022-11-19T21:36:38.253Z,81.00
2022-11-19T21:39:07.130Z,78.60
2022-11-19T21:41:35.694Z,78.00
2022-11-19T21:44:06.048Z,79.10
2022-11-19T21:46:34.202Z,85.70
2022-11-19T21:49:02.418Z,94.60
2022-11-19T21:51:30.377Z,91.10
2022-11-19T21:53:59.230Z,85.30
2022-11-19T21:56:31.358Z,84.00
2022-11-19T21:59:04.681Z,91.40
2022-11-19T22:01:32.560Z,95.30
2022-11-19T22:04:00.412Z,90.80
2022-11-19T22:06:28.243Z,85.70
2022-11-19T22:08:56.331Z,82.10
2022-11-19T22:11:30.117Z,93.40
2022-11-19T22:13:59.593Z,96.90
2022-11-19T22:16:29.301Z,92.20
2022-11-19T22:18:57.211Z,84.80
2022-11-19T22:21:25.076Z,86.00
2022-11-19T22:23:53.575Z,91.90
2022-11-19T22:26:21.835Z,84.60
2022-11-19T22:28:49.680Z,81.00
2022-11-19T22:31:17.570Z,80.90
2022-11-19T22:33:51.382Z,93.20
2022-11-19T22:36:20.974Z,91.60
2022-11-19T22:38:49.058Z,82.20
2022-11-19T22:41:18.355Z,82.10
2022-11-19T22:43:46.543Z,92.90
2022-11-19T22:46:15.426Z,96.10
2022-11-19T22:48:43.305Z,88.20
2022-11-19T22:51:15.133Z,83.40
2022-11-19T22:53:43.769Z,89.90
2022-11-19T22:56:13.247Z,94.80
2022-11-19T22:58:41.542Z,87.60
2022-11-19T23:01:15.884Z,84.20
2022-11-19T23:03:43.892Z,86.20
2022-11-19T23:06:13.240Z,94.10
2022-11-19T23:08:41.100Z,90.40
2022-11-19T23:11:09.379Z,82.60
2022-11-19T23:13:38.990Z,81.40
2022-11-19T23:16:08.740Z,93.50
2022-11-19T23:18:38.241Z,92.90
2022-11-19T23:21:08.256Z,85.40
2022-11-19T23:23:37.793Z,81.50
2022-11-19T23:26:07.726Z,92.70
2022-11-19T23:28:37.836Z,94.70
2022-11-19T23:31:07.278Z,85.10
2022-11-19T23:33:35.231Z,83.00
2022-11-19T23:36:04.935Z,91.70
2022-11-19T23:38:33.020Z,95.10
2022-11-19T23:41:02.685Z,87.20
2022-11-19T23:43:30.823Z,83.40
2022-11-19T23:46:04.892Z,90.50
2022-11-19T23:48:33.282Z,94.50
2022-11-19T23:51:02.999Z,93.70
2022-11-19T23:53:31.043Z,94.10
2022-11-19T23:55:59.020Z,95.10
2022-11-19T23:58:29.004Z,95.50
